sensor_id;sensor_type;location;lat;lon;timestamp;P1;durP1;ratioP1;P2;durP2;ratioP2
80315;SDS011;71201;47.064;15.448;2024-02-21T00:00:03;12.95;;;4.13;;
80315;SDS011;71201;47.064;15.448;2024-02-21T00:02:30;13.13;;;4.07;;
80315;SDS011;71201;47.064;15.448;2024-02-21T00:04:55;9.95;;;4.00;;
80315;SDS011;71201;47.064;15.448;2024-02-21T00:07:20;11.23;;;4.50;;
80315;SDS011;71201;47.064;15.448;2024-02-21T00:09:46;9.57;;;4.13;;
80315;SDS011;71201;47.064;15.448;2024-02-21T00:12:11;8.70;;;4.00;;
80315;SDS011;71201;47.064;15.448;2024-02-21T00:14:38;7.55;;;4.15;;
80315;SDS011;71201;47.064;15.448;2024-02-21T00:17:04;10.57;;;4.63;;
80315;SDS011;71201;47.064;15.448;2024-02-21T00:19:29;7.72;;;4.22;;
80315;SDS011;71201;47.064;15.448;2024-02-21T00:21:54;8.93;;;4.17;;
80315;SDS011;71201;47.064;15.448;2024-02-21T00:24:19;7.60;;;3.70;;
80315;SDS011;71201;47.064;15.448;2024-02-21T00:26:45;11.40;;;3.67;;
80315;SDS011;71201;47.064;15.448;2024-02-21T00:29:10;8.75;;;4.68;;
80315;SDS011;71201;47.064;15.448;2024-02-21T00:31:35;6.90;;;3.67;;
80315;SDS011;71201;47.064;15.448;2024-02-21T00:34:01;7.97;;;3.70;;
80315;SDS011;71201;47.064;15.448;2024-02-21T00:36:26;7.37;;;3.90;;
80315;SDS011;71201;47.064;15.448;2024-02-21T00:38:51;11.98;;;4.20;;
80315;SDS011;71201;47.064;15.448;2024-02-21T00:41:17;8.75;;;4.13;;
80315;SDS011;71201;47.064;15.448;2024-02-21T00:43:42;8.93;;;4.03;;
80315;SDS011;71201;47.064;15.448;2024-02-21T00:46:07;7.03;;;3.75;;
80315;SDS011;71201;47.064;15.448;2024-02-21T00:48:33;7.70;;;3.40;;
80315;SDS011;71201;47.064;15.448;2024-02-21T00:50:59;7.95;;;3.53;;
80315;SDS011;71201;47.064;15.448;2024-02-21T00:53:24;6.95;;;3.53;;
80315;SDS011;71201;47.064;15.448;2024-02-21T00:55:49;8.80;;;4.07;;
80315;SDS011;71201;47.064;15.448;2024-02-21T00:58:15;8.45;;;3.40;;
80315;SDS011;71201;47.064;15.448;2024-02-21T01:00:40;7.90;;;3.53;;
80315;SDS011;71201;47.064;15.448;2024-02-21T01:03:05;8.85;;;3.78;;
80315;SDS011;71201;47.064;15.448;2024-02-21T01:05:31;8.93;;;3.67;;
80315;SDS011;71201;47.064;15.448;2024-02-21T01:07:56;8.70;;;4.10;;
80315;SDS011;71201;47.064;15.448;2024-02-21T01:10:21;6.67;;;3.60;;
80315;SDS011;71201;47.064;15.448;2024-02-21T01:12:47;9.50;;;3.15;;
80315;SDS011;71201;47.064;15.448;2024-02-21T01:15:13;8.43;;;3.92;;
80315;SDS011;71201;47.064;15.448;2024-02-21T01:17:38;8.30;;;4.37;;
80315;SDS011;71201;47.064;15.448;2024-02-21T01:20:05;11.40;;;4.45;;
80315;SDS011;71201;47.064;15.448;2024-02-21T01:22:31;10.55;;;4.15;;
80315;SDS011;71201;47.064;15.448;2024-02-21T01:24:56;10.90;;;3.67;;
80315;SDS011;71201;47.064;15.448;2024-02-21T01:27:22;9.43;;;4.43;;
80315;SDS011;71201;47.064;15.448;2024-02-21T01:29:47;8.87;;;3.60;;
80315;SDS011;71201;47.064;15.448;2024-02-21T01:32:14;6.60;;;3.58;;
80315;SDS011;71201;47.064;15.448;2024-02-21T01:34:39;8.97;;;4.27;;
80315;SDS011;71201;47.064;15.448;2024-02-21T01:37:05;9.77;;;4.27;;
80315;SDS011;71201;47.064;15.448;2024-02-21T01:39:32;8.63;;;3.55;;
80315;SDS011;71201;47.064;15.448;2024-02-21T01:41:57;7.57;;;3.23;;
80315;SDS011;71201;47.064;15.448;2024-02-21T01:44:23;8.35;;;3.97;;
80315;SDS011;71201;47.064;15.448;2024-02-21T01:46:48;7.57;;;3.37;;
80315;SDS011;71201;47.064;15.448;2024-02-21T01:49:14;6.13;;;2.65;;
80315;SDS011;71201;47.064;15.448;2024-02-21T01:51:39;8.88;;;2.97;;
80315;SDS011;71201;47.064;15.448;2024-02-21T01:54:04;9.65;;;3.17;;
80315;SDS011;71201;47.064;15.448;2024-02-21T01:56:30;6.82;;;3.00;;
80315;SDS011;71201;47.064;15.448;2024-02-21T01:58:55;5.28;;;2.67;;
80315;SDS011;71201;47.064;15.448;2024-02-21T02:01:21;8.00;;;2.75;;
80315;SDS011;71201;47.064;15.448;2024-02-21T02:03:46;6.35;;;2.83;;
80315;SDS011;71201;47.064;15.448;2024-02-21T02:06:12;7.53;;;3.50;;
80315;SDS011;71201;47.064;15.448;2024-02-21T02:08:37;7.30;;;2.95;;
80315;SDS011;71201;47.064;15.448;2024-02-21T02:11:02;10.30;;;2.97;;
80315;SDS011;71201;47.064;15.448;2024-02-21T02:13:28;5.90;;;2.75;;
80315;SDS011;71201;47.064;15.448;2024-02-21T02:15:53;7.05;;;3.03;;
80315;SDS011;71201;47.064;15.448;2024-02-21T02:18:19;6.38;;;2.67;;
80315;SDS011;71201;47.064;15.448;2024-02-21T02:20:44;5.97;;;2.40;;
80315;SDS011;71201;47.064;15.448;2024-02-21T02:25:45;6.82;;;3.15;;
80315;SDS011;71201;47.064;15.448;2024-02-21T02:28:14;7.20;;;3.70;;
80315;SDS011;71201;47.064;15.448;2024-02-21T02:30:39;6.68;;;3.10;;
80315;SDS011;71201;47.064;15.448;2024-02-21T02:33:04;7.07;;;3.07;;
80315;SDS011;71201;47.064;15.448;2024-02-21T02:35:30;6.72;;;2.13;;
80315;SDS011;71201;47.064;15.448;2024-02-21T02:37:55;6.70;;;3.00;;
80315;SDS011;71201;47.064;15.448;2024-02-21T02:40:20;8.10;;;2.45;;
80315;SDS011;71201;47.064;15.448;2024-02-21T02:42:46;3.85;;;2.13;;
80315;SDS011;71201;47.064;15.448;2024-02-21T02:45:13;5.25;;;2.05;;
80315;SDS011;71201;47.064;15.448;2024-02-21T02:47:39;5.57;;;2.03;;
80315;SDS011;71201;47.064;15.448;2024-02-21T02:50:05;3.58;;;2.28;;
80315;SDS011;71201;47.064;15.448;2024-02-21T02:52:31;8.68;;;3.38;;
80315;SDS011;71201;47.064;15.448;2024-02-21T02:54:56;7.60;;;3.17;;
80315;SDS011;71201;47.064;15.448;2024-02-21T02:57:21;9.07;;;3.30;;
80315;SDS011;71201;47.064;15.448;2024-02-21T02:59:47;8.43;;;3.10;;
80315;SDS011;71201;47.064;15.448;2024-02-21T03:02:13;6.82;;;2.90;;
80315;SDS011;71201;47.064;15.448;2024-02-21T03:04:39;6.07;;;3.03;;
80315;SDS011;71201;47.064;15.448;2024-02-21T03:07:04;5.95;;;2.53;;
80315;SDS011;71201;47.064;15.448;2024-02-21T03:09:30;6.40;;;2.45;;
80315;SDS011;71201;47.064;15.448;2024-02-21T03:11:55;5.23;;;2.33;;
80315;SDS011;71201;47.064;15.448;2024-02-21T03:14:27;5.47;;;2.58;;
80315;SDS011;71201;47.064;15.448;2024-02-21T03:16:52;5.45;;;2.80;;
80315;SDS011;71201;47.064;15.448;2024-02-21T03:19:17;7.17;;;3.07;;
80315;SDS011;71201;47.064;15.448;2024-02-21T03:21:43;7.33;;;2.10;;
80315;SDS011;71201;47.064;15.448;2024-02-21T03:24:08;4.83;;;2.57;;
80315;SDS011;71201;47.064;15.448;2024-02-21T03:26:33;6.17;;;2.73;;
80315;SDS011;71201;47.064;15.448;2024-02-21T03:28:58;6.03;;;2.70;;
80315;SDS011;71201;47.064;15.448;2024-02-21T03:31:24;5.35;;;2.25;;
80315;SDS011;71201;47.064;15.448;2024-02-21T03:33:49;6.53;;;2.88;;
80315;SDS011;71201;47.064;15.448;2024-02-21T03:36:15;6.55;;;2.55;;
80315;SDS011;71201;47.064;15.448;2024-02-21T03:38:40;6.68;;;2.92;;
80315;SDS011;71201;47.064;15.448;2024-02-21T03:41:06;5.35;;;3.03;;
80315;SDS011;71201;47.064;15.448;2024-02-21T03:43:31;7.40;;;3.20;;
80315;SDS011;71201;47.064;15.448;2024-02-21T03:45:56;7.27;;;2.97;;
80315;SDS011;71201;47.064;15.448;2024-02-21T03:48:22;3.93;;;2.03;;
80315;SDS011;71201;47.064;15.448;2024-02-21T03:50:47;4.57;;;2.45;;
80315;SDS011;71201;47.064;15.448;2024-02-21T03:53:12;7.53;;;2.50;;
80315;SDS011;71201;47.064;15.448;2024-02-21T03:55:37;6.33;;;2.57;;
80315;SDS011;71201;47.064;15.448;2024-02-21T03:58:03;4.32;;;2.03;;
80315;SDS011;71201;47.064;15.448;2024-02-21T04:00:28;4.85;;;2.08;;
80315;SDS011;71201;47.064;15.448;2024-02-21T04:02:53;5.60;;;2.33;;
80315;SDS011;71201;47.064;15.448;2024-02-21T04:05:20;4.50;;;2.05;;
80315;SDS011;71201;47.064;15.448;2024-02-21T04:07:46;7.53;;;2.53;;
80315;SDS011;71201;47.064;15.448;2024-02-21T04:10:11;6.80;;;2.43;;
80315;SDS011;71201;47.064;15.448;2024-02-21T04:12:37;4.78;;;2.03;;
80315;SDS011;71201;47.064;15.448;2024-02-21T04:15:03;7.57;;;1.98;;
80315;SDS011;71201;47.064;15.448;2024-02-21T04:17:28;4.43;;;2.03;;
80315;SDS011;71201;47.064;15.448;2024-02-21T04:19:55;6.13;;;2.20;;
80315;SDS011;71201;47.064;15.448;2024-02-21T04:22:26;5.97;;;2.47;;
80315;SDS011;71201;47.064;15.448;2024-02-21T04:24:51;6.27;;;2.50;;
80315;SDS011;71201;47.064;15.448;2024-02-21T04:27:16;3.83;;;1.97;;
80315;SDS011;71201;47.064;15.448;2024-02-21T04:29:42;4.80;;;2.23;;
80315;SDS011;71201;47.064;15.448;2024-02-21T04:32:07;6.57;;;2.22;;
80315;SDS011;71201;47.064;15.448;2024-02-21T04:34:33;6.25;;;2.17;;
80315;SDS011;71201;47.064;15.448;2024-02-21T04:36:59;5.85;;;2.40;;
80315;SDS011;71201;47.064;15.448;2024-02-21T04:39:24;5.20;;;2.20;;
80315;SDS011;71201;47.064;15.448;2024-02-21T04:41:49;4.93;;;2.33;;
80315;SDS011;71201;47.064;15.448;2024-02-21T04:44:15;4.23;;;1.90;;
80315;SDS011;71201;47.064;15.448;2024-02-21T04:46:44;5.20;;;2.40;;
80315;SDS011;71201;47.064;15.448;2024-02-21T04:49:09;6.57;;;2.08;;
80315;SDS011;71201;47.064;15.448;2024-02-21T04:51:34;5.85;;;2.20;;
80315;SDS011;71201;47.064;15.448;2024-02-21T04:54:00;5.87;;;1.90;;
80315;SDS011;71201;47.064;15.448;2024-02-21T04:56:25;4.23;;;2.37;;
80315;SDS011;71201;47.064;15.448;2024-02-21T04:58:50;6.00;;;2.72;;
80315;SDS011;71201;47.064;15.448;2024-02-21T05:01:16;5.68;;;2.83;;
80315;SDS011;71201;47.064;15.448;2024-02-21T05:03:42;9.20;;;2.37;;
80315;SDS011;71201;47.064;15.448;2024-02-21T05:06:07;5.43;;;2.42;;
80315;SDS011;71201;47.064;15.448;2024-02-21T05:08:32;6.47;;;2.10;;
80315;SDS011;71201;47.064;15.448;2024-02-21T05:10:58;5.30;;;2.60;;
80315;SDS011;71201;47.064;15.448;2024-02-21T05:13:23;6.17;;;2.40;;
80315;SDS011;71201;47.064;15.448;2024-02-21T05:15:49;4.78;;;2.05;;
80315;SDS011;71201;47.064;15.448;2024-02-21T05:18:14;8.65;;;2.53;;
80315;SDS011;71201;47.064;15.448;2024-02-21T05:20:39;5.40;;;2.15;;
80315;SDS011;71201;47.064;15.448;2024-02-21T05:23:05;4.13;;;1.80;;
80315;SDS011;71201;47.064;15.448;2024-02-21T05:25:30;7.20;;;3.20;;
80315;SDS011;71201;47.064;15.448;2024-02-21T05:27:55;6.00;;;2.55;;
80315;SDS011;71201;47.064;15.448;2024-02-21T05:30:21;7.43;;;2.47;;
80315;SDS011;71201;47.064;15.448;2024-02-21T05:32:47;3.28;;;1.83;;
80315;SDS011;71201;47.064;15.448;2024-02-21T05:35:12;8.03;;;2.20;;
80315;SDS011;71201;47.064;15.448;2024-02-21T05:37:37;6.97;;;2.10;;
80315;SDS011;71201;47.064;15.448;2024-02-21T05:40:03;5.20;;;2.30;;
80315;SDS011;71201;47.064;15.448;2024-02-21T05:42:29;8.73;;;2.47;;
80315;SDS011;71201;47.064;15.448;2024-02-21T05:44:54;8.57;;;2.30;;
80315;SDS011;71201;47.064;15.448;2024-02-21T05:47:19;8.50;;;2.23;;
80315;SDS011;71201;47.064;15.448;2024-02-21T05:49:45;6.03;;;2.25;;
80315;SDS011;71201;47.064;15.448;2024-02-21T05:52:10;4.87;;;2.60;;
80315;SDS011;71201;47.064;15.448;2024-02-21T05:54:39;6.10;;;2.30;;
80315;SDS011;71201;47.064;15.448;2024-02-21T05:57:05;8.98;;;2.72;;
80315;SDS011;71201;47.064;15.448;2024-02-21T05:59:31;6.32;;;2.15;;
80315;SDS011;71201;47.064;15.448;2024-02-21T06:01:57;7.85;;;2.47;;
80315;SDS011;71201;47.064;15.448;2024-02-21T06:04:22;5.70;;;2.22;;
80315;SDS011;71201;47.064;15.448;2024-02-21T06:06:48;7.00;;;2.60;;
80315;SDS011;71201;47.064;15.448;2024-02-21T06:09:13;5.85;;;2.38;;
80315;SDS011;71201;47.064;15.448;2024-02-21T06:11:38;7.80;;;2.58;;
80315;SDS011;71201;47.064;15.448;2024-02-21T06:14:04;7.33;;;3.20;;
80315;SDS011;71201;47.064;15.448;2024-02-21T06:16:29;6.73;;;2.50;;
80315;SDS011;71201;47.064;15.448;2024-02-21T06:18:54;10.07;;;2.75;;
80315;SDS011;71201;47.064;15.448;2024-02-21T06:21:19;8.93;;;2.70;;
80315;SDS011;71201;47.064;15.448;2024-02-21T06:23:45;5.60;;;2.33;;
80315;SDS011;71201;47.064;15.448;2024-02-21T06:26:10;5.70;;;1.90;;
80315;SDS011;71201;47.064;15.448;2024-02-21T06:28:36;10.18;;;2.30;;
80315;SDS011;71201;47.064;15.448;2024-02-21T06:31:02;6.95;;;2.70;;
80315;SDS011;71201;47.064;15.448;2024-02-21T06:33:27;6.18;;;2.42;;
80315;SDS011;71201;47.064;15.448;2024-02-21T06:35:53;6.70;;;2.77;;
80315;SDS011;71201;47.064;15.448;2024-02-21T06:38:19;8.85;;;2.90;;
80315;SDS011;71201;47.064;15.448;2024-02-21T06:40:44;14.57;;;3.28;;
80315;SDS011;71201;47.064;15.448;2024-02-21T06:43:14;7.32;;;2.88;;
80315;SDS011;71201;47.064;15.448;2024-02-21T06:45:39;7.95;;;2.83;;
80315;SDS011;71201;47.064;15.448;2024-02-21T06:48:05;6.93;;;2.57;;
80315;SDS011;71201;47.064;15.448;2024-02-21T06:50:30;7.63;;;2.80;;
80315;SDS011;71201;47.064;15.448;2024-02-21T06:52:55;8.53;;;2.70;;
80315;SDS011;71201;47.064;15.448;2024-02-21T06:55:20;6.17;;;2.47;;
80315;SDS011;71201;47.064;15.448;2024-02-21T06:57:46;5.10;;;2.25;;
80315;SDS011;71201;47.064;15.448;2024-02-21T07:00:13;6.63;;;2.33;;
80315;SDS011;71201;47.064;15.448;2024-02-21T07:02:38;7.32;;;3.10;;
80315;SDS011;71201;47.064;15.448;2024-02-21T07:05:04;8.90;;;2.75;;
80315;SDS011;71201;47.064;15.448;2024-02-21T07:07:30;9.82;;;2.63;;
80315;SDS011;71201;47.064;15.448;2024-02-21T07:09:55;11.45;;;2.97;;
80315;SDS011;71201;47.064;15.448;2024-02-21T07:12:20;14.87;;;3.23;;
80315;SDS011;71201;47.064;15.448;2024-02-21T07:14:46;14.63;;;3.58;;
80315;SDS011;71201;47.064;15.448;2024-02-21T07:17:11;11.63;;;2.83;;
80315;SDS011;71201;47.064;15.448;2024-02-21T07:19:36;6.53;;;2.07;;
80315;SDS011;71201;47.064;15.448;2024-02-21T07:22:01;10.32;;;2.42;;
80315;SDS011;71201;47.064;15.448;2024-02-21T07:24:27;12.90;;;2.50;;
80315;SDS011;71201;47.064;15.448;2024-02-21T07:26:52;10.30;;;2.30;;
80315;SDS011;71201;47.064;15.448;2024-02-21T07:29:18;11.23;;;2.83;;
80315;SDS011;71201;47.064;15.448;2024-02-21T07:31:43;11.47;;;3.33;;
80315;SDS011;71201;47.064;15.448;2024-02-21T07:34:09;14.50;;;3.97;;
80315;SDS011;71201;47.064;15.448;2024-02-21T07:36:34;15.20;;;3.13;;
80315;SDS011;71201;47.064;15.448;2024-02-21T07:38:59;18.13;;;2.97;;
80315;SDS011;71201;47.064;15.448;2024-02-21T07:41:25;12.52;;;2.97;;
80315;SDS011;71201;47.064;15.448;2024-02-21T07:43:50;12.77;;;3.28;;
80315;SDS011;71201;47.064;15.448;2024-02-21T07:46:16;19.05;;;2.70;;
80315;SDS011;71201;47.064;15.448;2024-02-21T07:48:42;14.80;;;4.07;;
80315;SDS011;71201;47.064;15.448;2024-02-21T07:51:07;7.88;;;2.33;;
80315;SDS011;71201;47.064;15.448;2024-02-21T07:53:32;9.40;;;2.70;;
80315;SDS011;71201;47.064;15.448;2024-02-21T07:55:58;14.07;;;3.03;;
80315;SDS011;71201;47.064;15.448;2024-02-21T07:58:23;10.32;;;2.60;;
80315;SDS011;71201;47.064;15.448;2024-02-21T08:00:48;18.47;;;2.73;;
80315;SDS011;71201;47.064;15.448;2024-02-21T08:03:14;15.75;;;2.70;;
80315;SDS011;71201;47.064;15.448;2024-02-21T08:05:42;11.75;;;2.70;;
80315;SDS011;71201;47.064;15.448;2024-02-21T08:08:07;11.43;;;2.83;;
80315;SDS011;71201;47.064;15.448;2024-02-21T08:10:33;8.40;;;3.05;;
80315;SDS011;71201;47.064;15.448;2024-02-21T08:12:59;7.13;;;2.50;;
80315;SDS011;71201;47.064;15.448;2024-02-21T08:15:24;9.15;;;2.42;;
80315;SDS011;71201;47.064;15.448;2024-02-21T08:17:53;9.25;;;2.42;;
80315;SDS011;71201;47.064;15.448;2024-02-21T08:20:18;8.43;;;2.33;;
80315;SDS011;71201;47.064;15.448;2024-02-21T08:22:43;8.13;;;1.87;;
80315;SDS011;71201;47.064;15.448;2024-02-21T08:25:09;17.33;;;2.50;;
80315;SDS011;71201;47.064;15.448;2024-02-21T08:27:34;17.83;;;2.70;;
80315;SDS011;71201;47.064;15.448;2024-02-21T08:29:59;8.37;;;1.93;;
80315;SDS011;71201;47.064;15.448;2024-02-21T08:32:24;7.23;;;1.43;;
80315;SDS011;71201;47.064;15.448;2024-02-21T08:34:50;5.57;;;1.60;;
80315;SDS011;71201;47.064;15.448;2024-02-21T08:37:15;3.58;;;1.55;;
80315;SDS011;71201;47.064;15.448;2024-02-21T08:39:40;9.50;;;2.15;;
80315;SDS011;71201;47.064;15.448;2024-02-21T08:42:06;3.27;;;1.60;;
80315;SDS011;71201;47.064;15.448;2024-02-21T08:44:31;5.97;;;2.08;;
80315;SDS011;71201;47.064;15.448;2024-02-21T08:46:56;6.97;;;1.93;;
80315;SDS011;71201;47.064;15.448;2024-02-21T08:49:22;6.20;;;2.00;;
80315;SDS011;71201;47.064;15.448;2024-02-21T08:51:47;7.72;;;2.03;;
80315;SDS011;71201;47.064;15.448;2024-02-21T08:54:12;6.32;;;2.20;;
80315;SDS011;71201;47.064;15.448;2024-02-21T08:56:38;7.50;;;2.15;;
80315;SDS011;71201;47.064;15.448;2024-02-21T08:59:03;5.13;;;1.90;;
80315;SDS011;71201;47.064;15.448;2024-02-21T09:01:29;7.35;;;2.65;;
80315;SDS011;71201;47.064;15.448;2024-02-21T09:03:54;8.23;;;2.50;;
80315;SDS011;71201;47.064;15.448;2024-02-21T09:06:21;7.70;;;2.47;;
80315;SDS011;71201;47.064;15.448;2024-02-21T09:08:46;5.00;;;1.70;;
80315;SDS011;71201;47.064;15.448;2024-02-21T09:11:12;2.72;;;1.40;;
80315;SDS011;71201;47.064;15.448;2024-02-21T09:13:37;4.83;;;1.40;;
80315;SDS011;71201;47.064;15.448;2024-02-21T09:16:02;4.73;;;1.80;;
80315;SDS011;71201;47.064;15.448;2024-02-21T09:18:28;4.72;;;1.63;;
80315;SDS011;71201;47.064;15.448;2024-02-21T09:20:53;4.32;;;1.67;;
80315;SDS011;71201;47.064;15.448;2024-02-21T09:23:19;5.25;;;1.73;;
80315;SDS011;71201;47.064;15.448;2024-02-21T09:25:44;2.33;;;1.35;;
80315;SDS011;71201;47.064;15.448;2024-02-21T09:28:11;4.40;;;1.85;;
80315;SDS011;71201;47.064;15.448;2024-02-21T09:30:36;5.85;;;1.52;;
80315;SDS011;71201;47.064;15.448;2024-02-21T09:33:03;6.18;;;2.00;;
80315;SDS011;71201;47.064;15.448;2024-02-21T09:35:30;5.38;;;1.42;;
80315;SDS011;71201;47.064;15.448;2024-02-21T09:37:55;4.93;;;1.42;;
80315;SDS011;71201;47.064;15.448;2024-02-21T09:40:20;5.93;;;1.90;;
80315;SDS011;71201;47.064;15.448;2024-02-21T09:42:46;5.63;;;1.83;;
80315;SDS011;71201;47.064;15.448;2024-02-21T09:47:43;6.32;;;1.83;;
80315;SDS011;71201;47.064;15.448;2024-02-21T09:50:12;5.97;;;1.90;;
80315;SDS011;71201;47.064;15.448;2024-02-21T09:52:39;11.50;;;2.35;;
80315;SDS011;71201;47.064;15.448;2024-02-21T09:55:05;6.75;;;2.60;;
80315;SDS011;71201;47.064;15.448;2024-02-21T09:57:31;8.05;;;1.90;;
80315;SDS011;71201;47.064;15.448;2024-02-21T09:59:57;5.57;;;2.35;;
80315;SDS011;71201;47.064;15.448;2024-02-21T10:02:24;5.90;;;2.20;;
80315;SDS011;71201;47.064;15.448;2024-02-21T10:04:49;3.30;;;1.60;;
80315;SDS011;71201;47.064;15.448;2024-02-21T10:07:14;5.05;;;1.40;;
80315;SDS011;71201;47.064;15.448;2024-02-21T10:09:40;6.03;;;2.03;;
80315;SDS011;71201;47.064;15.448;2024-02-21T10:12:10;4.25;;;1.48;;
80315;SDS011;71201;47.064;15.448;2024-02-21T10:14:36;5.18;;;1.58;;
80315;SDS011;71201;47.064;15.448;2024-02-21T10:17:01;5.50;;;1.63;;
80315;SDS011;71201;47.064;15.448;2024-02-21T10:19:27;8.93;;;2.08;;
80315;SDS011;71201;47.064;15.448;2024-02-21T10:21:59;8.25;;;1.70;;
80315;SDS011;71201;47.064;15.448;2024-02-21T10:24:28;7.78;;;1.90;;
80315;SDS011;71201;47.064;15.448;2024-02-21T10:29:25;8.00;;;1.67;;
80315;SDS011;71201;47.064;15.448;2024-02-21T10:31:50;6.15;;;1.80;;
80315;SDS011;71201;47.064;15.448;2024-02-21T10:34:16;4.53;;;1.77;;
80315;SDS011;71201;47.064;15.448;2024-02-21T10:36:42;5.07;;;1.33;;
80315;SDS011;71201;47.064;15.448;2024-02-21T10:39:08;5.55;;;1.80;;
80315;SDS011;71201;47.064;15.448;2024-02-21T10:41:34;5.95;;;1.98;;
80315;SDS011;71201;47.064;15.448;2024-02-21T10:44:01;3.10;;;1.50;;
80315;SDS011;71201;47.064;15.448;2024-02-21T10:46:30;6.85;;;1.65;;
80315;SDS011;71201;47.064;15.448;2024-02-21T10:51:43;3.75;;;1.40;;
80315;SDS011;71201;47.064;15.448;2024-02-21T10:56:52;6.50;;;1.55;;
80315;SDS011;71201;47.064;15.448;2024-02-21T10:59:18;4.30;;;1.50;;
80315;SDS011;71201;47.064;15.448;2024-02-21T11:01:44;4.20;;;1.60;;
80315;SDS011;71201;47.064;15.448;2024-02-21T11:04:10;3.75;;;1.52;;
80315;SDS011;71201;47.064;15.448;2024-02-21T11:06:37;7.50;;;1.95;;
80315;SDS011;71201;47.064;15.448;2024-02-21T11:11:29;5.07;;;1.60;;
80315;SDS011;71201;47.064;15.448;2024-02-21T11:14:04;5.28;;;1.70;;
80315;SDS011;71201;47.064;15.448;2024-02-21T11:16:34;3.35;;;1.45;;
80315;SDS011;71201;47.064;15.448;2024-02-21T11:19:09;3.58;;;1.70;;
80315;SDS011;71201;47.064;15.448;2024-02-21T11:21:36;8.30;;;2.00;;
80315;SDS011;71201;47.064;15.448;2024-02-21T11:24:02;4.13;;;1.92;;
80315;SDS011;71201;47.064;15.448;2024-02-21T11:26:27;4.75;;;1.63;;
80315;SDS011;71201;47.064;15.448;2024-02-21T11:28:56;5.63;;;1.60;;
80315;SDS011;71201;47.064;15.448;2024-02-21T11:31:22;3.95;;;1.88;;
80315;SDS011;71201;47.064;15.448;2024-02-21T11:33:47;3.80;;;1.60;;
80315;SDS011;71201;47.064;15.448;2024-02-21T11:36:22;5.97;;;1.90;;
80315;SDS011;71201;47.064;15.448;2024-02-21T11:41:13;2.97;;;1.65;;
80315;SDS011;71201;47.064;15.448;2024-02-21T11:43:38;5.33;;;1.57;;
80315;SDS011;71201;47.064;15.448;2024-02-21T11:46:03;5.75;;;1.80;;
80315;SDS011;71201;47.064;15.448;2024-02-21T11:48:31;2.35;;;1.23;;
80315;SDS011;71201;47.064;15.448;2024-02-21T11:50:57;3.83;;;1.48;;
80315;SDS011;71201;47.064;15.448;2024-02-21T11:53:22;3.22;;;1.00;;
80315;SDS011;71201;47.064;15.448;2024-02-21T11:55:47;5.93;;;1.30;;
80315;SDS011;71201;47.064;15.448;2024-02-21T11:58:13;5.97;;;1.27;;
80315;SDS011;71201;47.064;15.448;2024-02-21T12:00:38;3.28;;;1.05;;
80315;SDS011;71201;47.064;15.448;2024-02-21T12:03:04;3.40;;;1.23;;
80315;SDS011;71201;47.064;15.448;2024-02-21T12:05:29;3.97;;;1.23;;
80315;SDS011;71201;47.064;15.448;2024-02-21T12:07:55;2.88;;;1.10;;
80315;SDS011;71201;47.064;15.448;2024-02-21T12:10:20;4.05;;;1.05;;
80315;SDS011;71201;47.064;15.448;2024-02-21T12:12:46;5.97;;;1.23;;
80315;SDS011;71201;47.064;15.448;2024-02-21T12:15:11;2.53;;;1.30;;
80315;SDS011;71201;47.064;15.448;2024-02-21T12:17:36;3.40;;;1.20;;
80315;SDS011;71201;47.064;15.448;2024-02-21T12:20:05;3.42;;;1.30;;
80315;SDS011;71201;47.064;15.448;2024-02-21T12:22:33;3.63;;;0.95;;
80315;SDS011;71201;47.064;15.448;2024-02-21T12:25:02;2.72;;;1.20;;
80315;SDS011;71201;47.064;15.448;2024-02-21T12:27:28;3.90;;;1.63;;
80315;SDS011;71201;47.064;15.448;2024-02-21T12:29:53;5.38;;;1.30;;
80315;SDS011;71201;47.064;15.448;2024-02-21T12:32:19;6.13;;;1.40;;
80315;SDS011;71201;47.064;15.448;2024-02-21T12:34:44;3.95;;;1.52;;
80315;SDS011;71201;47.064;15.448;2024-02-21T12:37:10;8.32;;;1.40;;
80315;SDS011;71201;47.064;15.448;2024-02-21T12:39:37;5.72;;;1.17;;
80315;SDS011;71201;47.064;15.448;2024-02-21T12:42:03;3.65;;;1.00;;
80315;SDS011;71201;47.064;15.448;2024-02-21T12:44:29;2.53;;;1.13;;
80315;SDS011;71201;47.064;15.448;2024-02-21T12:46:54;3.97;;;1.20;;
80315;SDS011;71201;47.064;15.448;2024-02-21T12:49:19;2.47;;;1.00;;
80315;SDS011;71201;47.064;15.448;2024-02-21T12:51:44;2.50;;;0.80;;
80315;SDS011;71201;47.064;15.448;2024-02-21T12:54:12;2.95;;;1.40;;
80315;SDS011;71201;47.064;15.448;2024-02-21T12:56:37;4.40;;;1.23;;
80315;SDS011;71201;47.064;15.448;2024-02-21T12:59:02;3.97;;;1.60;;
80315;SDS011;71201;47.064;15.448;2024-02-21T13:01:28;3.53;;;0.85;;
80315;SDS011;71201;47.064;15.448;2024-02-21T13:03:53;1.70;;;0.77;;
80315;SDS011;71201;47.064;15.448;2024-02-21T13:06:20;3.03;;;0.68;;
80315;SDS011;71201;47.064;15.448;2024-02-21T13:08:46;2.38;;;0.98;;
80315;SDS011;71201;47.064;15.448;2024-02-21T13:11:12;1.75;;;0.50;;
80315;SDS011;71201;47.064;15.448;2024-02-21T13:13:37;4.35;;;0.85;;
80315;SDS011;71201;47.064;15.448;2024-02-21T13:16:03;2.85;;;1.00;;
80315;SDS011;71201;47.064;15.448;2024-02-21T13:18:28;4.72;;;1.00;;
80315;SDS011;71201;47.064;15.448;2024-02-21T13:20:54;3.50;;;0.93;;
80315;SDS011;71201;47.064;15.448;2024-02-21T13:23:19;3.90;;;1.10;;
80315;SDS011;71201;47.064;15.448;2024-02-21T13:25:46;1.70;;;0.90;;
80315;SDS011;71201;47.064;15.448;2024-02-21T13:28:12;2.35;;;0.90;;
80315;SDS011;71201;47.064;15.448;2024-02-21T13:30:38;1.88;;;0.70;;
80315;SDS011;71201;47.064;15.448;2024-02-21T13:33:03;3.70;;;0.80;;
80315;SDS011;71201;47.064;15.448;2024-02-21T13:35:29;2.58;;;0.70;;
80315;SDS011;71201;47.064;15.448;2024-02-21T13:37:54;1.67;;;0.65;;
80315;SDS011;71201;47.064;15.448;2024-02-21T13:40:19;5.38;;;0.98;;
80315;SDS011;71201;47.064;15.448;2024-02-21T13:42:44;4.60;;;0.95;;
80315;SDS011;71201;47.064;15.448;2024-02-21T13:45:10;2.35;;;0.93;;
80315;SDS011;71201;47.064;15.448;2024-02-21T13:47:35;3.45;;;0.70;;
80315;SDS011;71201;47.064;15.448;2024-02-21T13:50:05;3.38;;;0.85;;
80315;SDS011;71201;47.064;15.448;2024-02-21T13:52:31;3.50;;;0.90;;
80315;SDS011;71201;47.064;15.448;2024-02-21T13:54:56;2.22;;;0.60;;
80315;SDS011;71201;47.064;15.448;2024-02-21T13:57:21;3.45;;;0.93;;
80315;SDS011;71201;47.064;15.448;2024-02-21T13:59:47;4.35;;;0.82;;
80315;SDS011;71201;47.064;15.448;2024-02-21T14:02:12;3.03;;;0.60;;
80315;SDS011;71201;47.064;15.448;2024-02-21T14:04:38;4.43;;;0.55;;
80315;SDS011;71201;47.064;15.448;2024-02-21T14:07:03;2.20;;;0.73;;
80315;SDS011;71201;47.064;15.448;2024-02-21T14:09:29;2.55;;;0.70;;
80315;SDS011;71201;47.064;15.448;2024-02-21T14:11:58;3.28;;;0.77;;
80315;SDS011;71201;47.064;15.448;2024-02-21T14:14:23;2.55;;;0.55;;
80315;SDS011;71201;47.064;15.448;2024-02-21T14:16:48;7.25;;;1.02;;
80315;SDS011;71201;47.064;15.448;2024-02-21T14:19:14;3.92;;;0.85;;
80315;SDS011;71201;47.064;15.448;2024-02-21T14:21:39;3.28;;;0.73;;
80315;SDS011;71201;47.064;15.448;2024-02-21T14:24:05;2.90;;;0.80;;
80315;SDS011;71201;47.064;15.448;2024-02-21T14:26:30;1.52;;;0.70;;
80315;SDS011;71201;47.064;15.448;2024-02-21T14:28:56;1.77;;;0.80;;
80315;SDS011;71201;47.064;15.448;2024-02-21T14:31:22;3.30;;;0.88;;
80315;SDS011;71201;47.064;15.448;2024-02-21T14:33:47;2.50;;;0.70;;
80315;SDS011;71201;47.064;15.448;2024-02-21T14:36:12;1.83;;;0.70;;
80315;SDS011;71201;47.064;15.448;2024-02-21T14:38:37;2.08;;;0.75;;
80315;SDS011;71201;47.064;15.448;2024-02-21T14:41:03;3.03;;;0.60;;